sensor_id;sensor_type;location;lat;lon;timestamp;P1;durP1;ratioP1;P2;durP2;ratioP2
56271;SDS011;42177;48.914;18.160;2023-09-30T00:03:36;8.9;;;6;;
56271;SDS011;42177;48.914;18.160;2023-09-30T00:08:36;8.9;;;6;;
56271;SDS011;42177;48.914;18.160;2023-09-30T00:13:36;7.8;;;5.1;;
56271;SDS011;42177;48.914;18.160;2023-09-30T00:18:36;7.8;;;5.1;;
56271;SDS011;42177;48.914;18.160;2023-09-30T00:23:36;7.6;;;5.3;;
56271;SDS011;42177;48.914;18.160;2023-09-30T00:28:36;7.6;;;5.3;;
56271;SDS011;42177;48.914;18.160;2023-09-30T00:33:36;8.2;;;5.8;;
56271;SDS011;42177;48.914;18.160;2023-09-30T00:38:36;8.2;;;5.8;;
56271;SDS011;42177;48.914;18.160;2023-09-30T00:43:36;6.2;;;5.2;;
56271;SDS011;42177;48.914;18.160;2023-09-30T00:48:36;6.2;;;5.2;;
56271;SDS011;42177;48.914;18.160;2023-09-30T00:53:36;8.4;;;5.6;;
56271;SDS011;42177;48.914;18.160;2023-09-30T00:58:36;8.4;;;5.6;;
56271;SDS011;42177;48.914;18.160;2023-09-30T01:03:36;7.8;;;5.7;;
56271;SDS011;42177;48.914;18.160;2023-09-30T01:08:36;7.8;;;5.7;;
56271;SDS011;42177;48.914;18.160;2023-09-30T01:13:36;6.6;;;5.7;;
56271;SDS011;42177;48.914;18.160;2023-09-30T01:18:36;6.6;;;5.7;;
56271;SDS011;42177;48.914;18.160;2023-09-30T01:23:36;6.6;;;5.4;;
56271;SDS011;42177;48.914;18.160;2023-09-30T01:28:36;6.6;;;5.4;;
56271;SDS011;42177;48.914;18.160;2023-09-30T01:33:36;8.4;;;5.9;;
56271;SDS011;42177;48.914;18.160;2023-09-30T01:38:36;8.4;;;5.9;;
56271;SDS011;42177;48.914;18.160;2023-09-30T01:43:36;7.7;;;5.3;;
56271;SDS011;42177;48.914;18.160;2023-09-30T01:48:36;7.7;;;5.3;;
56271;SDS011;42177;48.914;18.160;2023-09-30T01:53:36;9;;;5.4;;
56271;SDS011;42177;48.914;18.160;2023-09-30T01:58:36;9;;;5.4;;
56271;SDS011;42177;48.914;18.160;2023-09-30T02:03:36;7.8;;;4.8;;
56271;SDS011;42177;48.914;18.160;2023-09-30T02:08:36;7.8;;;4.8;;
56271;SDS011;42177;48.914;18.160;2023-09-30T02:13:36;7.9;;;5.1;;
56271;SDS011;42177;48.914;18.160;2023-09-30T02:18:36;7.9;;;5.1;;
56271;SDS011;42177;48.914;18.160;2023-09-30T02:23:36;7.2;;;5.3;;
56271;SDS011;42177;48.914;18.160;2023-09-30T02:28:36;7.2;;;5.3;;
56271;SDS011;42177;48.914;18.160;2023-09-30T02:33:36;6.7;;;5.3;;
56271;SDS011;42177;48.914;18.160;2023-09-30T02:38:36;6.7;;;5.3;;
56271;SDS011;42177;48.914;18.160;2023-09-30T02:43:36;7.1;;;4.9;;
56271;SDS011;42177;48.914;18.160;2023-09-30T02:48:36;7.1;;;4.9;;
56271;SDS011;42177;48.914;18.160;2023-09-30T02:53:36;7;;;5;;
56271;SDS011;42177;48.914;18.160;2023-09-30T02:58:36;7;;;5;;
56271;SDS011;42177;48.914;18.160;2023-09-30T03:03:36;8.7;;;7;;
56271;SDS011;42177;48.914;18.160;2023-09-30T03:08:36;8.7;;;7;;
56271;SDS011;42177;48.914;18.160;2023-09-30T03:13:36;9.2;;;7;;
56271;SDS011;42177;48.914;18.160;2023-09-30T03:18:36;9.2;;;7;;
56271;SDS011;42177;48.914;18.160;2023-09-30T03:23:36;9.8;;;7.2;;
56271;SDS011;42177;48.914;18.160;2023-09-30T03:28:36;9.8;;;7.2;;
56271;SDS011;42177;48.914;18.160;2023-09-30T03:33:37;8.3;;;7.5;;
56271;SDS011;42177;48.914;18.160;2023-09-30T03:38:36;8.3;;;7.5;;
56271;SDS011;42177;48.914;18.160;2023-09-30T03:43:36;13.3;;;10.2;;
56271;SDS011;42177;48.914;18.160;2023-09-30T03:48:36;13.3;;;10.2;;
56271;SDS011;42177;48.914;18.160;2023-09-30T03:53:36;8.8;;;6.9;;
56271;SDS011;42177;48.914;18.160;2023-09-30T03:58:36;8.8;;;6.9;;
56271;SDS011;42177;48.914;18.160;2023-09-30T04:03:36;9.1;;;7.3;;
56271;SDS011;42177;48.914;18.160;2023-09-30T04:08:36;9.1;;;7.3;;
56271;SDS011;42177;48.914;18.160;2023-09-30T04:13:36;7.5;;;6.5;;
56271;SDS011;42177;48.914;18.160;2023-09-30T04:18:36;7.5;;;6.5;;
56271;SDS011;42177;48.914;18.160;2023-09-30T04:23:36;8.7;;;6.3;;
56271;SDS011;42177;48.914;18.160;2023-09-30T04:28:36;8.7;;;6.3;;
56271;SDS011;42177;48.914;18.160;2023-09-30T04:33:36;7.5;;;6.6;;
56271;SDS011;42177;48.914;18.160;2023-09-30T04:38:36;7.5;;;6.6;;
56271;SDS011;42177;48.914;18.160;2023-09-30T04:43:36;9;;;7.9;;
56271;SDS011;42177;48.914;18.160;2023-09-30T04:48:36;9;;;7.9;;
56271;SDS011;42177;48.914;18.160;2023-09-30T04:53:36;11.9;;;8.7;;
56271;SDS011;42177;48.914;18.160;2023-09-30T04:58:36;11.9;;;8.7;;
56271;SDS011;42177;48.914;18.160;2023-09-30T05:03:36;9.8;;;8.1;;
56271;SDS011;42177;48.914;18.160;2023-09-30T05:08:36;9.8;;;8.1;;
56271;SDS011;42177;48.914;18.160;2023-09-30T05:13:36;12;;;8.5;;
56271;SDS011;42177;48.914;18.160;2023-09-30T05:18:36;12;;;8.5;;
56271;SDS011;42177;48.914;18.160;2023-09-30T05:23:36;12.9;;;9.5;;
56271;SDS011;42177;48.914;18.160;2023-09-30T05:28:36;12.9;;;9.5;;
56271;SDS011;42177;48.914;18.160;2023-09-30T05:33:36;10.7;;;9.2;;
56271;SDS011;42177;48.914;18.160;2023-09-30T05:38:36;10.7;;;9.2;;
56271;SDS011;42177;48.914;18.160;2023-09-30T05:43:36;12.3;;;9.3;;
56271;SDS011;42177;48.914;18.160;2023-09-30T05:48:36;12.3;;;9.3;;
56271;SDS011;42177;48.914;18.160;2023-09-30T05:53:36;11.3;;;8.9;;
56271;SDS011;42177;48.914;18.160;2023-09-30T05:58:36;11.3;;;8.9;;
56271;SDS011;42177;48.914;18.160;2023-09-30T06:03:36;10;;;8.2;;
56271;SDS011;42177;48.914;18.160;2023-09-30T06:08:36;10;;;8.2;;
56271;SDS011;42177;48.914;18.160;2023-09-30T06:13:36;9.8;;;8.1;;
56271;SDS011;42177;48.914;18.160;2023-09-30T06:18:36;9.8;;;8.1;;
56271;SDS011;42177;48.914;18.160;2023-09-30T06:23:36;10.8;;;9.6;;
56271;SDS011;42177;48.914;18.160;2023-09-30T06:28:36;10.8;;;9.6;;
56271;SDS011;42177;48.914;18.160;2023-09-30T06:33:36;9.6;;;7.3;;
56271;SDS011;42177;48.914;18.160;2023-09-30T06:38:36;9.6;;;7.3;;
56271;SDS011;42177;48.914;18.160;2023-09-30T06:43:36;10.4;;;8.4;;
56271;SDS011;42177;48.914;18.160;2023-09-30T06:48:36;10.4;;;8.4;;
56271;SDS011;42177;48.914;18.160;2023-09-30T06:53:36;8.8;;;7.5;;
56271;SDS011;42177;48.914;18.160;2023-09-30T06:58:36;8.8;;;7.5;;
56271;SDS011;42177;48.914;18.160;2023-09-30T07:03:36;8.5;;;7.2;;
56271;SDS011;42177;48.914;18.160;2023-09-30T07:08:36;8.5;;;7.2;;
56271;SDS011;42177;48.914;18.160;2023-09-30T07:13:36;8.3;;;6.5;;
56271;SDS011;42177;48.914;18.160;2023-09-30T07:18:36;8.3;;;6.5;;
56271;SDS011;42177;48.914;18.160;2023-09-30T07:23:36;33.5;;;29.8;;
56271;SDS011;42177;48.914;18.160;2023-09-30T07:28:36;33.5;;;29.8;;
56271;SDS011;42177;48.914;18.160;2023-09-30T07:33:36;9.6;;;7.3;;
56271;SDS011;42177;48.914;18.160;2023-09-30T07:38:36;9.6;;;7.3;;
56271;SDS011;42177;48.914;18.160;2023-09-30T07:43:36;11.8;;;9.5;;
56271;SDS011;42177;48.914;18.160;2023-09-30T07:48:36;11.8;;;9.5;;
56271;SDS011;42177;48.914;18.160;2023-09-30T07:53:36;13.5;;;10.4;;
56271;SDS011;42177;48.914;18.160;2023-09-30T07:58:36;13.5;;;10.4;;
56271;SDS011;42177;48.914;18.160;2023-09-30T08:03:36;12;;;9.8;;
56271;SDS011;42177;48.914;18.160;2023-09-30T08:08:36;12;;;9.8;;
56271;SDS011;42177;48.914;18.160;2023-09-30T08:13:36;12.3;;;9.6;;
56271;SDS011;42177;48.914;18.160;2023-09-30T08:18:36;12.3;;;9.6;;
56271;SDS011;42177;48.914;18.160;2023-09-30T08:23:36;12.4;;;9.8;;
56271;SDS011;42177;48.914;18.160;2023-09-30T08:28:36;12.4;;;9.8;;
56271;SDS011;42177;48.914;18.160;2023-09-30T08:33:36;13.5;;;10.3;;
56271;SDS011;42177;48.914;18.160;2023-09-30T08:38:37;13.5;;;10.3;;
56271;SDS011;42177;48.914;18.160;2023-09-30T08:43:37;15;;;11.2;;
56271;SDS011;42177;48.914;18.160;2023-09-30T08:48:36;15;;;11.2;;
56271;SDS011;42177;48.914;18.160;2023-09-30T08:53:36;27;;;23.1;;
56271;SDS011;42177;48.914;18.160;2023-09-30T08:58:36;27;;;23.1;;
56271;SDS011;42177;48.914;18.160;2023-09-30T09:03:36;12.1;;;9;;
56271;SDS011;42177;48.914;18.160;2023-09-30T09:08:36;12.1;;;9;;
56271;SDS011;42177;48.914;18.160;2023-09-30T09:13:45;35.9;;;29;;
56271;SDS011;42177;48.914;18.160;2023-09-30T09:18:37;35.9;;;29;;
56271;SDS011;42177;48.914;18.160;2023-09-30T09:23:40;12.6;;;9.9;;
56271;SDS011;42177;48.914;18.160;2023-09-30T09:28:36;12.6;;;9.9;;
56271;SDS011;42177;48.914;18.160;2023-09-30T09:33:36;11.5;;;9.3;;
56271;SDS011;42177;48.914;18.160;2023-09-30T09:38:43;11.5;;;9.3;;
56271;SDS011;42177;48.914;18.160;2023-09-30T09:43:36;12.9;;;9.1;;
56271;SDS011;42177;48.914;18.160;2023-09-30T09:48:36;12.9;;;9.1;;
56271;SDS011;42177;48.914;18.160;2023-09-30T09:53:36;9.8;;;8.3;;
56271;SDS011;42177;48.914;18.160;2023-09-30T09:58:36;9.8;;;8.3;;
56271;SDS011;42177;48.914;18.160;2023-09-30T10:03:37;9.5;;;7.2;;
56271;SDS011;42177;48.914;18.160;2023-09-30T10:08:37;9.5;;;7.2;;
56271;SDS011;42177;48.914;18.160;2023-09-30T10:14:08;24;;;18.9;;
56271;SDS011;42177;48.914;18.160;2023-09-30T10:18:45;24;;;18.9;;
56271;SDS011;42177;48.914;18.160;2023-09-30T10:23:36;13;;;8.9;;
56271;SDS011;42177;48.914;18.160;2023-09-30T10:28:37;13;;;8.9;;
56271;SDS011;42177;48.914;18.160;2023-09-30T10:33:36;11.2;;;9.9;;
56271;SDS011;42177;48.914;18.160;2023-09-30T10:38:37;11.2;;;9.9;;
56271;SDS011;42177;48.914;18.160;2023-09-30T10:43:36;16.5;;;12.1;;
56271;SDS011;42177;48.914;18.160;2023-09-30T10:48:36;16.5;;;12.1;;
56271;SDS011;42177;48.914;18.160;2023-09-30T10:53:40;17;;;13;;
56271;SDS011;42177;48.914;18.160;2023-09-30T10:58:40;17;;;13;;
56271;SDS011;42177;48.914;18.160;2023-09-30T11:03:36;14.3;;;12.6;;
56271;SDS011;42177;48.914;18.160;2023-09-30T11:08:36;14.3;;;12.6;;
56271;SDS011;42177;48.914;18.160;2023-09-30T11:13:36;16.8;;;14.1;;
56271;SDS011;42177;48.914;18.160;2023-09-30T11:18:36;16.8;;;14.1;;
56271;SDS011;42177;48.914;18.160;2023-09-30T11:23:36;16;;;14.3;;
56271;SDS011;42177;48.914;18.160;2023-09-30T11:28:37;16;;;14.3;;
56271;SDS011;42177;48.914;18.160;2023-09-30T11:33:52;14.3;;;12.7;;
56271;SDS011;42177;48.914;18.160;2023-09-30T11:38:36;14.3;;;12.7;;
56271;SDS011;42177;48.914;18.160;2023-09-30T11:43:36;15.5;;;12.8;;
56271;SDS011;42177;48.914;18.160;2023-09-30T11:48:36;15.5;;;12.8;;
56271;SDS011;42177;48.914;18.160;2023-09-30T11:53:36;19.6;;;13.9;;
56271;SDS011;42177;48.914;18.160;2023-09-30T11:58:36;19.6;;;13.9;;
56271;SDS011;42177;48.914;18.160;2023-09-30T12:03:36;15.9;;;12;;
56271;SDS011;42177;48.914;18.160;2023-09-30T12:08:36;15.9;;;12;;
56271;SDS011;42177;48.914;18.160;2023-09-30T12:13:36;11.9;;;9;;
56271;SDS011;42177;48.914;18.160;2023-09-30T12:18:36;11.9;;;9;;
56271;SDS011;42177;48.914;18.160;2023-09-30T12:23:36;10.4;;;9.2;;
56271;SDS011;42177;48.914;18.160;2023-09-30T12:28:36;10.4;;;9.2;;
56271;SDS011;42177;48.914;18.160;2023-09-30T12:33:36;19.7;;;17.5;;
56271;SDS011;42177;48.914;18.160;2023-09-30T12:38:37;19.7;;;17.5;;
56271;SDS011;42177;48.914;18.160;2023-09-30T12:43:36;11.5;;;8.1;;
56271;SDS011;42177;48.914;18.160;2023-09-30T12:48:36;11.5;;;8.1;;
56271;SDS011;42177;48.914;18.160;2023-09-30T12:53:36;10.2;;;9.1;;
56271;SDS011;42177;48.914;18.160;2023-09-30T12:58:36;10.2;;;9.1;;
56271;SDS011;42177;48.914;18.160;2023-09-30T13:03:36;11.9;;;10.2;;
56271;SDS011;42177;48.914;18.160;2023-09-30T13:08:36;11.9;;;10.2;;
56271;SDS011;42177;48.914;18.160;2023-09-30T13:13:36;15.5;;;13.9;;
56271;SDS011;42177;48.914;18.160;2023-09-30T13:18:36;15.5;;;13.9;;
56271;SDS011;42177;48.914;18.160;2023-09-30T13:23:36;13.5;;;12.1;;
56271;SDS011;42177;48.914;18.160;2023-09-30T13:28:36;13.5;;;12.1;;
56271;SDS011;42177;48.914;18.160;2023-09-30T13:33:36;13;;;10.3;;
56271;SDS011;42177;48.914;18.160;2023-09-30T13:38:36;13;;;10.3;;
56271;SDS011;42177;48.914;18.160;2023-09-30T13:43:36;12.1;;;9.5;;
56271;SDS011;42177;48.914;18.160;2023-09-30T13:48:36;12.1;;;9.5;;
56271;SDS011;42177;48.914;18.160;2023-09-30T13:53:36;12.6;;;10.2;;
56271;SDS011;42177;48.914;18.160;2023-09-30T13:58:36;12.6;;;10.2;;
56271;SDS011;42177;48.914;18.160;2023-09-30T14:03:36;11.8;;;10.6;;
56271;SDS011;42177;48.914;18.160;2023-09-30T14:08:36;11.8;;;10.6;;
56271;SDS011;42177;48.914;18.160;2023-09-30T14:13:36;11.5;;;10;;
56271;SDS011;42177;48.914;18.160;2023-09-30T14:18:36;11.5;;;10;;
56271;SDS011;42177;48.914;18.160;2023-09-30T14:23:36;14.3;;;10.3;;
56271;SDS011;42177;48.914;18.160;2023-09-30T14:28:36;14.3;;;10.3;;
56271;SDS011;42177;48.914;18.160;2023-09-30T14:33:36;8.9;;;8;;
56271;SDS011;42177;48.914;18.160;2023-09-30T14:38:36;8.9;;;8;;
56271;SDS011;42177;48.914;18.160;2023-09-30T14:43:36;10.2;;;9.1;;
56271;SDS011;42177;48.914;18.160;2023-09-30T14:48:36;10.2;;;9.1;;
56271;SDS011;42177;48.914;18.160;2023-09-30T14:53:36;12.6;;;9.8;;
56271;SDS011;42177;48.914;18.160;2023-09-30T14:58:36;12.6;;;9.8;;
56271;SDS011;42177;48.914;18.160;2023-09-30T15:03:36;12.2;;;8.3;;
56271;SDS011;42177;48.914;18.160;2023-09-30T15:08:36;12.2;;;8.3;;
56271;SDS011;42177;48.914;18.160;2023-09-30T15:13:36;9.9;;;7.7;;
56271;SDS011;42177;48.914;18.160;2023-09-30T15:18:36;9.9;;;7.7;;
56271;SDS011;42177;48.914;18.160;2023-09-30T15:23:36;12.1;;;9.6;;
56271;SDS011;42177;48.914;18.160;2023-09-30T15:28:36;12.1;;;9.6;;
56271;SDS011;42177;48.914;18.160;2023-09-30T15:33:36;12.7;;;9.7;;
56271;SDS011;42177;48.914;18.160;2023-09-30T15:38:36;12.7;;;9.7;;
56271;SDS011;42177;48.914;18.160;2023-09-30T15:43:36;10.4;;;8.1;;
56271;SDS011;42177;48.914;18.160;2023-09-30T15:48:36;10.4;;;8.1;;
56271;SDS011;42177;48.914;18.160;2023-09-30T15:53:36;9.4;;;8.4;;
56271;SDS011;42177;48.914;18.160;2023-09-30T15:58:36;9.4;;;8.4;;
56271;SDS011;42177;48.914;18.160;2023-09-30T16:03:36;10.6;;;8.5;;
56271;SDS011;42177;48.914;18.160;2023-09-30T16:08:36;10.6;;;8.5;;
56271;SDS011;42177;48.914;18.160;2023-09-30T16:13:36;12.2;;;9.2;;
56271;SDS011;42177;48.914;18.160;2023-09-30T16:18:36;12.2;;;9.2;;
56271;SDS011;42177;48.914;18.160;2023-09-30T16:23:36;12.6;;;11.3;;
56271;SDS011;42177;48.914;18.160;2023-09-30T16:28:36;12.6;;;11.3;;
56271;SDS011;42177;48.914;18.160;2023-09-30T16:33:36;9.4;;;7.7;;
56271;SDS011;42177;48.914;18.160;2023-09-30T16:38:36;9.4;;;7.7;;
56271;SDS011;42177;48.914;18.160;2023-09-30T16:43:36;7.3;;;5.2;;
56271;SDS011;42177;48.914;18.160;2023-09-30T16:48:36;7.3;;;5.2;;
56271;SDS011;42177;48.914;18.160;2023-09-30T16:53:36;6.4;;;4.5;;
56271;SDS011;42177;48.914;18.160;2023-09-30T16:58:36;6.4;;;4.5;;
56271;SDS011;42177;48.914;18.160;2023-09-30T17:03:36;4.1;;;3.7;;
56271;SDS011;42177;48.914;18.160;2023-09-30T17:08:36;4.1;;;3.7;;
56271;SDS011;42177;48.914;18.160;2023-09-30T17:13:36;4.2;;;3.2;;
56271;SDS011;42177;48.914;18.160;2023-09-30T17:18:36;4.2;;;3.2;;
56271;SDS011;42177;48.914;18.160;2023-09-30T17:23:36;3.2;;;2.4;;
56271;SDS011;42177;48.914;18.160;2023-09-30T17:28:36;3.2;;;2.4;;
56271;SDS011;42177;48.914;18.160;2023-09-30T17:33:36;3.5;;;2.2;;
56271;SDS011;42177;48.914;18.160;2023-09-30T17:38:36;3.5;;;2.2;;
56271;SDS011;42177;48.914;18.160;2023-09-30T17:43:36;5.6;;;3.8;;
56271;SDS011;42177;48.914;18.160;2023-09-30T17:48:36;5.6;;;3.8;;
56271;SDS011;42177;48.914;18.160;2023-09-30T17:53:36;7.8;;;5.7;;
56271;SDS011;42177;48.914;18.160;2023-09-30T17:58:36;7.8;;;5.7;;
56271;SDS011;42177;48.914;18.160;2023-09-30T18:03:36;8.4;;;4.4;;
56271;SDS011;42177;48.914;18.160;2023-09-30T18:08:36;8.4;;;4.4;;
56271;SDS011;42177;48.914;18.160;2023-09-30T18:13:36;4.9;;;3.9;;
56271;SDS011;42177;48.914;18.160;2023-09-30T18:18:37;4.9;;;3.9;;
56271;SDS011;42177;48.914;18.160;2023-09-30T18:23:36;5.9;;;4;;
56271;SDS011;42177;48.914;18.160;2023-09-30T18:28:36;5.9;;;4;;
56271;SDS011;42177;48.914;18.160;2023-09-30T18:33:36;5.3;;;3.6;;
56271;SDS011;42177;48.914;18.160;2023-09-30T18:38:36;5.3;;;3.6;;
56271;SDS011;42177;48.914;18.160;2023-09-30T18:43:36;5.7;;;4.1;;
56271;SDS011;42177;48.914;18.160;2023-09-30T18:48:36;5.7;;;4.1;;
56271;SDS011;42177;48.914;18.160;2023-09-30T18:53:36;6.3;;;3.8;;
56271;SDS011;42177;48.914;18.160;2023-09-30T18:58:36;6.3;;;3.8;;
56271;SDS011;42177;48.914;18.160;2023-09-30T19:03:36;6.3;;;4.4;;
56271;SDS011;42177;48.914;18.160;2023-09-30T19:08:36;6.3;;;4.4;;
56271;SDS011;42177;48.914;18.160;2023-09-30T19:13:36;7;;;5.1;;
56271;SDS011;42177;48.914;18.160;2023-09-30T19:18:36;7;;;5.1;;
56271;SDS011;42177;48.914;18.160;2023-09-30T19:23:36;9.2;;;5.3;;
56271;SDS011;42177;48.914;18.160;2023-09-30T19:28:36;9.2;;;5.3;;
56271;SDS011;42177;48.914;18.160;2023-09-30T19:33:36;7.6;;;5.2;;
56271;SDS011;42177;48.914;18.160;2023-09-30T19:38:36;7.6;;;5.2;;
56271;SDS011;42177;48.914;18.160;2023-09-30T19:43:36;8.8;;;5.7;;
56271;SDS011;42177;48.914;18.160;2023-09-30T19:48:36;8.8;;;5.7;;
56271;SDS011;42177;48.914;18.160;2023-09-30T19:53:36;11.9;;;6.1;;
56271;SDS011;42177;48.914;18.160;2023-09-30T19:58:36;11.9;;;6.1;;
56271;SDS011;42177;48.914;18.160;2023-09-30T20:03:36;8.3;;;5.9;;
56271;SDS011;42177;48.914;18.160;2023-09-30T20:08:36;8.3;;;5.9;;
56271;SDS011;42177;48.914;18.160;2023-09-30T20:13:36;8.8;;;5.4;;
56271;SDS011;42177;48.914;18.160;2023-09-30T20:18:36;8.8;;;5.4;;
56271;SDS011;42177;48.914;18.160;2023-09-30T20:23:36;6.2;;;4.7;;
56271;SDS011;42177;48.914;18.160;2023-09-30T20:28:36;6.2;;;4.7;;
56271;SDS011;42177;48.914;18.160;2023-09-30T20:33:36;8;;;5;;
56271;SDS011;42177;48.914;18.160;2023-09-30T20:38:36;8;;;5;;
56271;SDS011;42177;48.914;18.160;2023-09-30T20:43:36;8.4;;;5.2;;
56271;SDS011;42177;48.914;18.160;2023-09-30T20:48:36;8.4;;;5.2;;
56271;SDS011;42177;48.914;18.160;2023-09-30T20:53:36;7.6;;;5;;
56271;SDS011;42177;48.914;18.160;2023-09-30T20:58:36;7.6;;;5;;
56271;SDS011;42177;48.914;18.160;2023-09-30T21:03:36;9.8;;;4.6;;
56271;SDS011;42177;48.914;18.160;2023-09-30T21:08:37;9.8;;;4.6;;
56271;SDS011;42177;48.914;18.160;2023-09-30T21:13:36;7.4;;;4.6;;
56271;SDS011;42177;48.914;18.160;2023-09-30T21:18:36;7.4;;;4.6;;
56271;SDS011;42177;48.914;18.160;2023-09-30T21:23:36;8.7;;;4.3;;
56271;SDS011;42177;48.914;18.160;2023-09-30T21:28:36;8.7;;;4.3;;
56271;SDS011;42177;48.914;18.160;2023-09-30T21:33:36;7.3;;;4.5;;
56271;SDS011;42177;48.914;18.160;2023-09-30T21:38:36;7.3;;;4.5;;
56271;SDS011;42177;48.914;18.160;2023-09-30T21:43:36;8.8;;;4.6;;
56271;SDS011;42177;48.914;18.160;2023-09-30T21:48:36;8.8;;;4.6;;
56271;SDS011;42177;48.914;18.160;2023-09-30T21:53:36;8.1;;;4.6;;
56271;SDS011;42177;48.914;18.160;2023-09-30T21:58:36;8.1;;;4.6;;
56271;SDS011;42177;48.914;18.160;2023-09-30T22:03:36;10.3;;;5.1;;
56271;SDS011;42177;48.914;18.160;2023-09-30T22:08:36;10.3;;;5.1;;
56271;SDS011;42177;48.914;18.160;2023-09-30T22:13:36;10;;;5.9;;
56271;SDS011;42177;48.914;18.160;2023-09-30T22:18:36;10;;;5.9;;
56271;SDS011;42177;48.914;18.160;2023-09-30T22:23:36;10.8;;;5.5;;
56271;SDS011;42177;48.914;18.160;2023-09-30T22:28:36;10.8;;;5.5;;
56271;SDS011;42177;48.914;18.160;2023-09-30T22:33:36;10.5;;;5.7;;
56271;SDS011;42177;48.914;18.160;2023-09-30T22:38:36;10.5;;;5.7;;
56271;SDS011;42177;48.914;18.160;2023-09-30T22:43:36;8.8;;;5.5;;
56271;SDS011;42177;48.914;18.160;2023-09-30T22:48:36;8.8;;;5.5;;
56271;SDS011;42177;48.914;18.160;2023-09-30T22:53:36;7.8;;;5.3;;
56271;SDS011;42177;48.914;18.160;2023-09-30T22:58:36;7.8;;;5.3;;
56271;SDS011;42177;48.914;18.160;2023-09-30T23:03:36;9.2;;;5.4;;
56271;SDS011;42177;48.914;18.160;2023-09-30T23:08:36;9.2;;;5.4;;
56271;SDS011;42177;48.914;18.160;2023-09-30T23:13:37;9.4;;;5.9;;
56271;SDS011;42177;48.914;18.160;2023-09-30T23:18:36;9.4;;;5.9;;
56271;SDS011;42177;48.914;18.160;2023-09-30T23:23:36;11.1;;;5.9;;
56271;SDS011;42177;48.914;18.160;2023-09-30T23:28:36;11.1;;;5.9;;
56271;SDS011;42177;48.914;18.160;2023-09-30T23:33:36;8.3;;;5.2;;
56271;SDS011;42177;48.914;18.160;2023-09-30T23:38:36;8.3;;;5.2;;
56271;SDS011;42177;48.914;18.160;2023-09-30T23:43:36;11;;;5.6;;
56271;SDS011;42177;48.914;18.160;2023-09-30T23:48:36;11;;;5.6;;
56271;SDS011;42177;48.914;18.160;2023-09-30T23:53:36;9.7;;;5.6;;
56271;SDS011;42177;48.914;18.160;2023-09-30T23:58:37;9.7;;;5.6;;
